Wetterdaten: Montag, 22.09.2014
Datum Zeit Temp. A. Feuchte A. Luftdruck Regen Wind Richtung Richtung Sonnenschein ET UV Solar Taupunkt Windchill Windben Empfang
22.09.2014 00:00 14,3 C 85 % 1009,7 hPa 0,0 l/m 2,2 km/h (1 Bft) S-SW 209 0 min 0,000 mm 0,0 UV-I 0 W/m 11,8 C 14,3 C 4,0 km/h (1 Bft) 0,00 %
22.09.2014 00:15 14,1 C 85 % 1009,4 hPa 0,0 l/m 6,8 km/h (2 Bft) W-SW 256 0 min 0,000 mm 0,0 UV-I 0 W/m 11,6 C 13,9 C 11,9 km/h (2 Bft) 0,00 %
22.09.2014 00:30 14,0 C 86 % 1009,5 hPa 0,0 l/m 4,3 km/h (1 Bft) W-SW 251 0 min 0,000 mm 0,0 UV-I 0 W/m 11,7 C 14,0 C 7,9 km/h (2 Bft) 0,00 %
22.09.2014 00:45 13,9 C 87 % 1009,6 hPa 0,3 l/m 0,4 km/h (0 Bft) S 185 0 min 0,000 mm 0,0 UV-I 0 W/m 11,8 C 13,9 C 4,0 km/h (1 Bft) 0,00 %
22.09.2014 01:00 13,9 C 87 % 1009,8 hPa 0,0 l/m 1,8 km/h (1 Bft) W-SW 254 0 min 0,000 mm 0,0 UV-I 0 W/m 11,8 C 13,9 C 4,0 km/h (1 Bft) 0,00 %
22.09.2014 01:15 13,8 C 86 % 1009,8 hPa 0,0 l/m 0,4 km/h (0 Bft) W-SW 251 0 min 0,000 mm 0,0 UV-I 0 W/m 11,5 C 13,8 C 4,0 km/h (1 Bft) 0,00 %
22.09.2014 01:30 13,7 C 85 % 1010,1 hPa 0,0 l/m 2,2 km/h (1 Bft) W-SW 255 0 min 0,000 mm 0,0 UV-I 0 W/m 11,2 C 13,7 C 4,0 km/h (1 Bft) 0,00 %
22.09.2014 01:45 13,6 C 85 % 1010,4 hPa 0,0 l/m 0,7 km/h (0 Bft) W-SW 250 0 min 0,000 mm 0,0 UV-I 0 W/m 11,1 C 13,6 C 4,0 km/h (1 Bft) 0,00 %
22.09.2014 02:00 13,5 C 86 % 1010,8 hPa 0,0 l/m 1,4 km/h (1 Bft) N-NW 335 0 min 0,000 mm 0,0 UV-I 0 W/m 11,2 C 13,5 C 4,0 km/h (1 Bft) 0,00 %
22.09.2014 02:15 13,5 C 86 % 1010,7 hPa 0,0 l/m 0,0 km/h (0 Bft) O-SO 102 0 min 0,000 mm 0,0 UV-I 0 W/m 11,2 C 13,5 C 0,0 km/h (0 Bft) 0,00 %
22.09.2014 02:30 13,5 C 86 % 1011,0 hPa 0,0 l/m 1,8 km/h (1 Bft) W-SW 252 0 min 0,000 mm 0,0 UV-I 0 W/m 11,2 C 13,5 C 4,0 km/h (1 Bft) 0,00 %
22.09.2014 02:45 13,4 C 86 % 1011,0 hPa 0,3 l/m 0,4 km/h (0 Bft) S 178 0 min 0,000 mm 0,0 UV-I 0 W/m 11,1 C 13,4 C 4,0 km/h (1 Bft) 0,00 %
22.09.2014 03:00 13,3 C 88 % 1011,1 hPa 0,3 l/m 4,0 km/h (1 Bft) S-SW 196 0 min 0,000 mm 0,0 UV-I 0 W/m 11,4 C 13,3 C 7,9 km/h (2 Bft) 0,00 %
22.09.2014 03:15 13,1 C 88 % 1011,5 hPa 2,1 l/m 3,2 km/h (1 Bft) SW 233 0 min 0,000 mm 0,0 UV-I 0 W/m 11,2 C 13,1 C 7,9 km/h (2 Bft) 0,00 %
22.09.2014 03:30 12,8 C 88 % 1011,7 hPa 3,0 l/m 1,4 km/h (1 Bft) W-SW 250 0 min 0,000 mm 0,0 UV-I 0 W/m 10,9 C 12,8 C 4,0 km/h (1 Bft) 0,00 %
22.09.2014 03:45 12,5 C 88 % 1012,1 hPa 0,3 l/m 6,8 km/h (2 Bft) W-SW 256 0 min 0,000 mm 0,0 UV-I 0 W/m 10,6 C 12,2 C 11,9 km/h (2 Bft) 0,00 %
22.09.2014 04:00 12,3 C 88 % 1012,3 hPa 0,0 l/m 0,4 km/h (0 Bft) W-SW 257 0 min 0,000 mm 0,0 UV-I 0 W/m 10,4 C 12,3 C 4,0 km/h (1 Bft) 0,00 %
22.09.2014 04:15 12,1 C 88 % 1012,7 hPa 0,0 l/m 3,2 km/h (1 Bft) W-SW 256 0 min 0,000 mm 0,0 UV-I 0 W/m 10,2 C 12,1 C 4,0 km/h (1 Bft) 0,00 %
22.09.2014 04:30 12,0 C 88 % 1012,5 hPa 0,0 l/m 0,4 km/h (0 Bft) SW 217 0 min 0,000 mm 0,0 UV-I 0 W/m 10,1 C 12,0 C 4,0 km/h (1 Bft) 0,00 %
22.09.2014 04:45 11,9 C 88 % 1012,6 hPa 0,0 l/m 0,0 km/h (0 Bft) SW 230 0 min 0,000 mm 0,0 UV-I 0 W/m 10,0 C 11,9 C 0,0 km/h (0 Bft) 0,00 %
22.09.2014 05:00 11,9 C 87 % 1012,7 hPa 0,0 l/m 0,4 km/h (0 Bft) W-SW 253 0 min 0,000 mm 0,0 UV-I 0 W/m 9,8 C 11,9 C 4,0 km/h (1 Bft) 0,00 %
22.09.2014 05:15 11,8 C 87 % 1012,9 hPa 0,0 l/m 5,8 km/h (2 Bft) W 265 0 min 0,000 mm 0,0 UV-I 0 W/m 9,7 C 11,8 C 7,9 km/h (2 Bft) 0,00 %
22.09.2014 05:30 11,8 C 86 % 1013,0 hPa 0,0 l/m 0,0 km/h (0 Bft) S 184 0 min 0,000 mm 0,0 UV-I 0 W/m 9,5 C 11,8 C 0,0 km/h (0 Bft) 0,00 %
22.09.2014 05:45 11,6 C 86 % 1013,0 hPa 0,0 l/m 0,4 km/h (0 Bft) SW 232 0 min 0,000 mm 0,0 UV-I 0 W/m 9,3 C 11,6 C 4,0 km/h (1 Bft) 0,00 %
22.09.2014 06:00 11,4 C 86 % 1013,0 hPa 0,0 l/m 0,7 km/h (0 Bft) W-SW 251 0 min 0,000 mm 0,0 UV-I 0 W/m 9,1 C 11,4 C 4,0 km/h (1 Bft) 0,00 %
22.09.2014 06:15 11,2 C 87 % 1013,0 hPa 0,0 l/m 1,4 km/h (1 Bft) W-SW 252 0 min 0,000 mm 0,0 UV-I 0 W/m 9,1 C 11,2 C 4,0 km/h (1 Bft) 0,00 %
22.09.2014 06:30 11,0 C 87 % 1013,2 hPa 0,0 l/m 7,2 km/h (2 Bft) SW 221 0 min 0,000 mm 0,0 UV-I 0 W/m 8,9 C 10,4 C 11,9 km/h (2 Bft) 0,00 %
22.09.2014 06:45 10,7 C 87 % 1013,1 hPa 0,0 l/m 0,4 km/h (0 Bft) SW 232 0 min 0,000 mm 0,0 UV-I 0 W/m 8,6 C 10,7 C 4,0 km/h (1 Bft) 0,00 %
22.09.2014 07:00 10,8 C 87 % 1013,3 hPa 0,0 l/m 0,7 km/h (0 Bft) SW 224 0 min 0,000 mm 1,0 UV-I 1 W/m 8,7 C 10,8 C 4,0 km/h (1 Bft) 0,00 %
22.09.2014 07:15 10,9 C 86 % 1013,6 hPa 0,0 l/m 0,0 km/h (0 Bft) S 190 0 min 0,000 mm 1,0 UV-I 7 W/m 8,7 C 10,9 C 0,0 km/h (0 Bft) 0,00 %
22.09.2014 07:30 10,9 C 85 % 1013,5 hPa 0,0 l/m 2,9 km/h (1 Bft) W-NW 291 0 min 0,000 mm 1,0 UV-I 37 W/m 8,5 C 10,9 C 4,0 km/h (1 Bft) 0,00 %
22.09.2014 07:45 11,2 C 83 % 1013,6 hPa 0,0 l/m 0,4 km/h (0 Bft) S-SW 197 0 min 0,000 mm 1,0 UV-I 74 W/m 8,4 C 11,2 C 4,0 km/h (1 Bft) 0,00 %
22.09.2014 08:00 11,5 C 82 % 1013,3 hPa 0,0 l/m 3,2 km/h (1 Bft) S 178 15 min 0,000 mm 1,0 UV-I 103 W/m 8,5 C 11,5 C 7,9 km/h (2 Bft) 0,00 %
22.09.2014 08:15 12,4 C 80 % 1013,5 hPa 0,0 l/m 3,2 km/h (1 Bft) SW 228 15 min 0,000 mm 2,0 UV-I 133 W/m 9,0 C 12,4 C 4,0 km/h (1 Bft) 0,00 %
22.09.2014 08:30 13,0 C 77 % 1013,3 hPa 0,0 l/m 6,8 km/h (2 Bft) N 349 15 min 0,000 mm 2,0 UV-I 165 W/m 9,1 C 12,8 C 15,8 km/h (3 Bft) 0,00 %
22.09.2014 08:45 12,2 C 78 % 1013,5 hPa 0,0 l/m 0,0 km/h (0 Bft) N 349 0 min 0,000 mm 2,0 UV-I 139 W/m 8,5 C 12,2 C 0,0 km/h (0 Bft) 0,00 %
22.09.2014 09:00 12,9 C 76 % 1013,3 hPa 0,0 l/m 0,4 km/h (0 Bft) SW 226 15 min 0,000 mm 3,0 UV-I 201 W/m 8,8 C 12,9 C 4,0 km/h (1 Bft) 0,00 %
22.09.2014 09:15 13,2 C 74 % 1013,4 hPa 0,0 l/m 1,4 km/h (1 Bft) W-SW 256 15 min 0,000 mm 3,0 UV-I 211 W/m 8,7 C 13,2 C 4,0 km/h (1 Bft) 0,00 %
22.09.2014 09:30 13,6 C 72 % 1013,4 hPa 0,0 l/m 6,8 km/h (2 Bft) W-SW 255 15 min 0,000 mm 2,0 UV-I 241 W/m 8,6 C 13,4 C 11,9 km/h (2 Bft) 0,00 %
22.09.2014 09:45 12,9 C 72 % 1013,5 hPa 0,0 l/m 0,7 km/h (0 Bft) W-SW 250 0 min 0,000 mm 3,0 UV-I 245 W/m 8,0 C 12,9 C 4,0 km/h (1 Bft) 0,00 %
22.09.2014 10:00 14,0 C 71 % 1013,6 hPa 0,0 l/m 0,7 km/h (0 Bft) O-SO 111 0 min 0,000 mm 3,0 UV-I 233 W/m 8,8 C 14,0 C 4,0 km/h (1 Bft) 0,00 %
22.09.2014 10:15 14,3 C 66 % 1013,6 hPa 0,0 l/m 4,0 km/h (1 Bft) W-SW 257 15 min 0,000 mm 2,0 UV-I 311 W/m 8,0 C 14,3 C 4,0 km/h (1 Bft) 0,00 %
22.09.2014 10:30 13,3 C 68 % 1013,7 hPa 0,0 l/m 1,4 km/h (1 Bft) W 269 0 min 0,000 mm 2,0 UV-I 227 W/m 7,5 C 13,3 C 4,0 km/h (1 Bft) 0,00 %
22.09.2014 10:45 13,9 C 66 % 1013,5 hPa 0,0 l/m 0,0 km/h (0 Bft) S 177 0 min 0,000 mm 2,0 UV-I 229 W/m 7,7 C 13,9 C 0,0 km/h (0 Bft) 0,00 %
22.09.2014 11:00 14,4 C 65 % 1013,4 hPa 0,0 l/m 0,4 km/h (0 Bft) W-SW 245 0 min 0,000 mm 3,0 UV-I 261 W/m 7,9 C 14,4 C 4,0 km/h (1 Bft) 0,00 %
22.09.2014 11:15 14,3 C 64 % 1013,5 hPa 0,0 l/m 0,0 km/h (0 Bft) S 175 15 min 0,000 mm 3,0 UV-I 348 W/m 7,6 C 14,3 C 0,0 km/h (0 Bft) 0,00 %
22.09.2014 11:30 13,8 C 67 % 1013,5 hPa 0,0 l/m 6,8 km/h (2 Bft) W-SW 256 0 min 0,000 mm 3,0 UV-I 165 W/m 7,8 C 13,6 C 11,9 km/h (2 Bft) 0,00 %
22.09.2014 11:45 12,6 C 70 % 1013,7 hPa 0,0 l/m 4,7 km/h (1 Bft) W-SW 256 0 min 0,000 mm 5,0 UV-I 152 W/m 7,3 C 12,6 C 7,9 km/h (2 Bft) 0,00 %
22.09.2014 12:00 13,4 C 67 % 1013,4 hPa 0,0 l/m 3,2 km/h (1 Bft) SW 233 0 min 0,000 mm 5,0 UV-I 250 W/m 7,4 C 13,4 C 4,0 km/h (1 Bft) 0,00 %
22.09.2014 12:15 13,5 C 68 % 1013,1 hPa 0,0 l/m 1,8 km/h (1 Bft) W-SW 251 0 min 0,000 mm 3,0 UV-I 226 W/m 7,7 C 13,5 C 4,0 km/h (1 Bft) 0,00 %
22.09.2014 12:30 14,1 C 62 % 1012,2 hPa 0,0 l/m 6,5 km/h (2 Bft) S 180 15 min 0,000 mm 3,0 UV-I 463 W/m 6,9 C 14,1 C 11,9 km/h (2 Bft) 0,00 %
22.09.2014 12:45 15,4 C 60 % 1011,7 hPa 0,0 l/m 7,9 km/h (2 Bft) W-SW 239 15 min 0,000 mm 3,0 UV-I 402 W/m 7,7 C 14,6 C 15,8 km/h (3 Bft) 0,00 %
22.09.2014 13:00 15,4 C 59 % 1012,4 hPa 0,0 l/m 9,7 km/h (2 Bft) W 278 15 min 0,000 mm 1,0 UV-I 369 W/m 7,4 C 13,7 C 15,8 km/h (3 Bft) 0,00 %
22.09.2014 13:15 14,5 C 60 % 1012,1 hPa 0,0 l/m 1,8 km/h (1 Bft) W-SW 256 15 min 0,000 mm 2,0 UV-I 369 W/m 6,8 C 14,5 C 4,0 km/h (1 Bft) 0,00 %
22.09.2014 13:30 14,4 C 61 % 1012,1 hPa 0,0 l/m 5,4 km/h (1 Bft) W-SW 256 0 min 0,000 mm 3,0 UV-I 292 W/m 7,0 C 14,4 C 7,9 km/h (2 Bft) 0,00 %
22.09.2014 13:45 15,1 C 61 % 1011,9 hPa 0,0 l/m 0,4 km/h (0 Bft) S-SO 161 0 min 0,000 mm 1,0 UV-I 91 W/m 7,6 C 15,1 C 4,0 km/h (1 Bft) 0,00 %
22.09.2014 14:00 11,5 C 78 % 1012,0 hPa 0,6 l/m 4,7 km/h (1 Bft) W-SW 252 0 min 0,000 mm 2,0 UV-I 120 W/m 7,8 C 11,5 C 7,9 km/h (2 Bft) 0,00 %
22.09.2014 14:15 12,8 C 72 % 1011,9 hPa 0,0 l/m 7,9 km/h (2 Bft) W-SW 257 0 min 0,000 mm 3,0 UV-I 238 W/m 7,9 C 11,9 C 11,9 km/h (2 Bft) 0,00 %
22.09.2014 14:30 13,3 C 69 % 1011,8 hPa 0,0 l/m 2,9 km/h (1 Bft) W-SW 251 0 min 0,000 mm 2,0 UV-I 233 W/m 7,7 C 13,3 C 7,9 km/h (2 Bft) 0,00 %
22.09.2014 14:45 13,2 C 67 % 1011,7 hPa 0,0 l/m 1,4 km/h (1 Bft) W-SW 256 0 min 0,000 mm 2,0 UV-I 133 W/m 7,2 C 13,2 C 4,0 km/h (1 Bft) 0,00 %
22.09.2014 15:00 13,7 C 65 % 1010,8 hPa 0,0 l/m 4,0 km/h (1 Bft) W-SW 256 0 min 0,000 mm 2,0 UV-I 239 W/m 7,2 C 13,7 C 4,0 km/h (1 Bft) 0,00 %
22.09.2014 15:15 13,9 C 62 % 1010,6 hPa 0,0 l/m 0,4 km/h (0 Bft) S 173 0 min 0,000 mm 1,0 UV-I 199 W/m 6,7 C 13,9 C 4,0 km/h (1 Bft) 0,00 %
22.09.2014 15:30 14,0 C 62 % 1010,9 hPa 0,0 l/m 0,0 km/h (0 Bft) S-SW 194 0 min 0,000 mm 1,0 UV-I 177 W/m 6,8 C 14,0 C 0,0 km/h (0 Bft) 0,00 %
22.09.2014 15:45 14,7 C 60 % 1010,2 hPa 0,0 l/m 4,3 km/h (1 Bft) NW 310 0 min 0,000 mm 1,0 UV-I 238 W/m 7,0 C 14,7 C 7,9 km/h (2 Bft) 0,00 %
22.09.2014 16:00 14,2 C 61 % 1010,8 hPa 0,0 l/m 9,7 km/h (2 Bft) SW 223 0 min 0,000 mm 1,0 UV-I 124 W/m 6,8 C 12,4 C 15,8 km/h (3 Bft) 0,00 %
22.09.2014 16:15 13,9 C 61 % 1011,1 hPa 0,0 l/m 1,4 km/h (1 Bft) S-SW 210 0 min 0,000 mm 1,0 UV-I 68 W/m 6,5 C 13,9 C 4,0 km/h (1 Bft) 0,00 %
22.09.2014 16:30 13,7 C 56 % 1011,3 hPa 0,0 l/m 0,4 km/h (0 Bft) W-SW 252 0 min 0,000 mm 1,0 UV-I 76 W/m 5,1 C 13,7 C 4,0 km/h (1 Bft) 0,00 %
22.09.2014 16:45 13,1 C 66 % 1011,5 hPa 0,0 l/m 4,7 km/h (1 Bft) O-SO 118 0 min 0,000 mm 1,0 UV-I 59 W/m 6,9 C 13,1 C 7,9 km/h (2 Bft) 0,00 %
22.09.2014 17:00 11,8 C 69 % 1011,9 hPa 0,0 l/m 0,4 km/h (0 Bft) S 183 0 min 0,000 mm 1,0 UV-I 77 W/m 6,3 C 11,8 C 4,0 km/h (1 Bft) 0,00 %
22.09.2014 17:15 11,5 C 70 % 1011,9 hPa 0,0 l/m 0,0 km/h (0 Bft) SW 218 0 min 0,000 mm 0,0 UV-I 91 W/m 6,2 C 11,5 C 0,0 km/h (0 Bft) 0,00 %
22.09.2014 17:30 11,9 C 68 % 1012,1 hPa 0,0 l/m 0,4 km/h (0 Bft) SW 216 15 min 0,000 mm 0,0 UV-I 238 W/m 6,2 C 11,9 C 4,0 km/h (1 Bft) 0,00 %
22.09.2014 17:45 12,2 C 66 % 1011,9 hPa 0,0 l/m 4,0 km/h (1 Bft) W-NW 291 0 min 0,000 mm 0,0 UV-I 92 W/m 6,0 C 12,2 C 4,0 km/h (1 Bft) 0,00 %
22.09.2014 18:00 11,9 C 67 % 1012,1 hPa 0,0 l/m 0,7 km/h (0 Bft) SW 216 0 min 0,000 mm 0,0 UV-I 32 W/m 6,0 C 11,9 C 4,0 km/h (1 Bft) 0,00 %
22.09.2014 18:15 12,1 C 64 % 1011,8 hPa 0,0 l/m 4,0 km/h (1 Bft) W-SW 256 0 min 0,000 mm 0,0 UV-I 24 W/m 5,5 C 12,1 C 7,9 km/h (2 Bft) 0,00 %
22.09.2014 18:30 12,4 C 60 % 1012,0 hPa 0,0 l/m 1,8 km/h (1 Bft) S 185 15 min 0,000 mm 0,0 UV-I 47 W/m 4,9 C 12,4 C 4,0 km/h (1 Bft) 0,00 %
22.09.2014 18:45 11,9 C 61 % 1012,4 hPa 0,0 l/m 0,7 km/h (0 Bft) W 267 0 min 0,000 mm 0,0 UV-I 7 W/m 4,6 C 11,9 C 4,0 km/h (1 Bft) 0,00 %
22.09.2014 19:00 11,4 C 62 % 1012,8 hPa 0,0 l/m 2,2 km/h (1 Bft) W-SW 256 0 min 0,000 mm 0,0 UV-I 0 W/m 4,4 C 11,4 C 7,9 km/h (2 Bft) 0,00 %
22.09.2014 19:15 10,8 C 66 % 1013,6 hPa 0,0 l/m 9,4 km/h (2 Bft) NO 46 0 min 0,000 mm 0,0 UV-I 0 W/m 4,7 C 8,8 C 15,8 km/h (3 Bft) 0,00 %
22.09.2014 19:30 9,2 C 75 % 1014,0 hPa 0,0 l/m 0,7 km/h (0 Bft) W-SW 252 0 min 0,000 mm 0,0 UV-I 0 W/m 5,0 C 9,2 C 4,0 km/h (1 Bft) 0,00 %
22.09.2014 19:45 8,6 C 78 % 1014,2 hPa 0,0 l/m 0,0 km/h (0 Bft) W-SW 256 0 min 0,000 mm 0,0 UV-I 0 W/m 5,0 C 8,6 C 0,0 km/h (0 Bft) 0,00 %
22.09.2014 20:00 8,0 C 82 % 1013,9 hPa 0,0 l/m 0,0 km/h (0 Bft) S 178 0 min 0,000 mm 0,0 UV-I 0 W/m 5,1 C 8,0 C 0,0 km/h (0 Bft) 0,00 %
22.09.2014 20:15 8,2 C 82 % 1015,0 hPa 0,9 l/m 0,0 km/h (0 Bft) O-SO 121 0 min 0,000 mm 0,0 UV-I 0 W/m 5,3 C 8,2 C 0,0 km/h (0 Bft) 0,00 %
22.09.2014 20:30 7,5 C 84 % 1014,8 hPa 0,0 l/m 1,4 km/h (1 Bft) W-NW 284 0 min 0,000 mm 0,0 UV-I 0 W/m 5,0 C 7,5 C 4,0 km/h (1 Bft) 0,00 %
22.09.2014 20:45 7,5 C 85 % 1015,1 hPa 0,0 l/m 0,4 km/h (0 Bft) W-SW 256 0 min 0,000 mm 0,0 UV-I 0 W/m 5,1 C 7,5 C 4,0 km/h (1 Bft) 0,00 %
22.09.2014 21:00 7,6 C 85 % 1015,1 hPa 0,0 l/m 2,2 km/h (1 Bft) W-SW 255 0 min 0,000 mm 0,0 UV-I 0 W/m 5,2 C 7,6 C 4,0 km/h (1 Bft) 0,00 %
22.09.2014 21:15 8,0 C 86 % 1015,2 hPa 0,3 l/m 0,7 km/h (0 Bft) O 85 0 min 0,000 mm 0,0 UV-I 0 W/m 5,8 C 8,0 C 4,0 km/h (1 Bft) 0,00 %
22.09.2014 21:30 7,9 C 86 % 1015,2 hPa 0,6 l/m 0,0 km/h (0 Bft) S 172 0 min 0,000 mm 0,0 UV-I 0 W/m 5,7 C 7,9 C 0,0 km/h (0 Bft) 0,00 %
22.09.2014 21:45 7,7 C 86 % 1015,4 hPa 0,3 l/m 1,4 km/h (1 Bft) S-SW 208 0 min 0,000 mm 0,0 UV-I 0 W/m 5,5 C 7,7 C 4,0 km/h (1 Bft) 0,00 %
22.09.2014 22:00 7,7 C 86 % 1015,5 hPa 0,0 l/m 0,4 km/h (0 Bft) S-SW 213 0 min 0,000 mm 0,0 UV-I 0 W/m 5,5 C 7,7 C 4,0 km/h (1 Bft) 0,00 %
22.09.2014 22:15 7,8 C 86 % 1015,6 hPa 0,0 l/m 1,8 km/h (1 Bft) W-SW 252 0 min 0,000 mm 0,0 UV-I 0 W/m 5,6 C 7,8 C 4,0 km/h (1 Bft) 0,00 %
22.09.2014 22:30 7,9 C 86 % 1015,6 hPa 0,0 l/m 0,4 km/h (0 Bft) W-SW 256 0 min 0,000 mm 0,0 UV-I 0 W/m 5,7 C 7,9 C 4,0 km/h (1 Bft) 0,00 %
22.09.2014 22:45 7,9 C 85 % 1015,7 hPa 0,0 l/m 4,3 km/h (1 Bft) W-SW 251 0 min 0,000 mm 0,0 UV-I 0 W/m 5,5 C 7,9 C 7,9 km/h (2 Bft) 0,00 %
22.09.2014 23:00 8,0 C 84 % 1016,1 hPa 0,0 l/m 4,3 km/h (1 Bft) W-SW 256 0 min 0,000 mm 0,0 UV-I 0 W/m 5,5 C 8,0 C 7,9 km/h (2 Bft) 0,00 %
22.09.2014 23:15 7,8 C 83 % 1016,1 hPa 0,0 l/m 0,0 km/h (0 Bft) NW 308 0 min 0,000 mm 0,0 UV-I 0 W/m 5,1 C 7,8 C 0,0 km/h (0 Bft) 0,00 %
22.09.2014 23:30 7,7 C 83 % 1016,3 hPa 0,0 l/m 3,2 km/h (1 Bft) W-SW 252 0 min 0,000 mm 0,0 UV-I 0 W/m 5,0 C 7,7 C 4,0 km/h (1 Bft) 0,00 %
22.09.2014 23:45 7,7 C 83 % 1016,5 hPa 0,0 l/m 1,8 km/h (1 Bft) W-SW 251 0 min 0,000 mm 0,0 UV-I 0 W/m 5,0 C 7,7 C 4,0 km/h (1 Bft) 0,00 %
_ Min-Zeit 20:30 16:30 00:15 - 02:15 - - - - - - 19:00 20:30 02:15 00:00
Minimum _ 7,5 C 56 % 1009,4 hPa - 0,0 km/h (0 Bft) - - - - - - 4,4 C 7,5 C 0,0 km/h (0 Bft) 0,00 %
_ Max-Zeit 12:45 03:00 23:45 03:30 13:00 - - 08:00 00:00 11:45 12:30 00:00 13:45 08:30 00:00
Maximum _ 15,4 C 88 % 1016,5 hPa 3,0 l/m 9,7 km/h
W (2 Bft)
- - 15 min 0,000 mm 5,0 UV-I 463 W/m 11,8 C 15,1 C 15,8 km/h
N (3 Bft)
0,00 %
Durchschnitt _ 12,0 C 76 % 1012,8 hPa #9,0 l/m 2,4 km/h (1 Bft) W-SW - #3:30 h #0,000 mm 2,1 UV-I 176 W/m 7,8 C 11,9 C 5,2 km/h (1 Bft) 0,00 %